sensor_id;sensor_type;location;lat;lon;timestamp;pressure;altitude;pressure_sealevel;temperature;humidity
12073;BME280;6098;49.004;8.372;2023-05-17T00:06:17;100860.05;;;11.73;59.26
12073;BME280;6098;49.004;8.372;2023-05-17T00:21:07;100869.47;;;11.44;60.70
12073;BME280;6098;49.004;8.372;2023-05-17T00:35:59;100881.16;;;11.51;61.05
12073;BME280;6098;49.004;8.372;2023-05-17T00:50:51;100884.77;;;11.49;61.64
12073;BME280;6098;49.004;8.372;2023-05-17T01:05:42;100892.25;;;11.37;62.52
12073;BME280;6098;49.004;8.372;2023-05-17T01:20:38;100903.17;;;11.29;63.15
12073;BME280;6098;49.004;8.372;2023-05-17T01:35:31;100919.34;;;11.21;64.08
12073;BME280;6098;49.004;8.372;2023-05-17T01:50:23;100932.17;;;11.07;64.93
12073;BME280;6098;49.004;8.372;2023-05-17T02:05:12;100934.05;;;10.90;65.81
12073;BME280;6098;49.004;8.372;2023-05-17T02:34:57;100946.43;;;10.76;68.07
12073;BME280;6098;49.004;8.372;2023-05-17T02:49:48;100954.35;;;10.62;68.84
12073;BME280;6098;49.004;8.372;2023-05-17T03:04:39;100958.29;;;10.48;68.48
12073;BME280;6098;49.004;8.372;2023-05-17T03:19:32;100967.73;;;10.43;68.28
12073;BME280;6098;49.004;8.372;2023-05-17T03:34:23;100963.09;;;10.35;69.10
12073;BME280;6098;49.004;8.372;2023-05-17T03:49:14;100984.78;;;10.34;69.49
12073;BME280;6098;49.004;8.372;2023-05-17T04:04:05;100996.16;;;10.37;69.56
12073;BME280;6098;49.004;8.372;2023-05-17T04:19:00;101010.89;;;10.32;69.75
12073;BME280;6098;49.004;8.372;2023-05-17T04:33:51;101022.74;;;10.18;70.23
12073;BME280;6098;49.004;8.372;2023-05-17T04:48:43;101035.45;;;10.39;69.80
12073;BME280;6098;49.004;8.372;2023-05-17T05:03:36;101066.31;;;10.56;69.82
12073;BME280;6098;49.004;8.372;2023-05-17T05:18:31;101071.05;;;10.61;69.57
12073;BME280;6098;49.004;8.372;2023-05-17T05:33:21;101093.83;;;10.67;69.73
12073;BME280;6098;49.004;8.372;2023-05-17T05:48:13;101097.05;;;10.94;69.60
12073;BME280;6098;49.004;8.372;2023-05-17T06:03:06;101111.58;;;11.12;69.34
12073;BME280;6098;49.004;8.372;2023-05-17T06:17:58;101128.41;;;11.54;68.95
12073;BME280;6098;49.004;8.372;2023-05-17T06:32:50;101126.20;;;11.69;67.56
12073;BME280;6098;49.004;8.372;2023-05-17T06:47:43;101143.09;;;11.81;66.50
12073;BME280;6098;49.004;8.372;2023-05-17T07:02:34;101143.58;;;12.20;64.69
12073;BME280;6098;49.004;8.372;2023-05-17T07:17:27;101146.92;;;12.51;61.35
12073;BME280;6098;49.004;8.372;2023-05-17T07:32:19;101155.73;;;12.78;58.05
12073;BME280;6098;49.004;8.372;2023-05-17T07:47:13;101161.19;;;13.12;57.17
12073;BME280;6098;49.004;8.372;2023-05-17T08:02:05;101156.61;;;13.39;55.01
12073;BME280;6098;49.004;8.372;2023-05-17T08:16:58;101157.96;;;13.62;54.54
12073;BME280;6098;49.004;8.372;2023-05-17T08:31:48;101153.17;;;13.36;55.53
12073;BME280;6098;49.004;8.372;2023-05-17T08:46:39;101151.98;;;13.43;53.76
12073;BME280;6098;49.004;8.372;2023-05-17T09:01:30;101143.38;;;13.25;53.99
12073;BME280;6098;49.004;8.372;2023-05-17T09:16:22;101136.77;;;13.92;53.38
12073;BME280;6098;49.004;8.372;2023-05-17T09:31:16;101137.50;;;14.06;53.60
12073;BME280;6098;49.004;8.372;2023-05-17T09:46:08;101146.34;;;14.39;51.55
12073;BME280;6098;49.004;8.372;2023-05-17T10:01:00;101154.91;;;14.47;51.42
12073;BME280;6098;49.004;8.372;2023-05-17T10:15:51;101155.89;;;14.45;51.45
12073;BME280;6098;49.004;8.372;2023-05-17T10:30:43;101151.13;;;14.63;51.88
12073;BME280;6098;49.004;8.372;2023-05-17T10:45:34;101149.41;;;14.71;51.25
12073;BME280;6098;49.004;8.372;2023-05-17T11:00:26;101157.14;;;14.78;51.21
12073;BME280;6098;49.004;8.372;2023-05-17T11:15:31;101159.93;;;14.85;50.29
12073;BME280;6098;49.004;8.372;2023-05-17T11:30:27;101152.73;;;15.35;47.84
12073;BME280;6098;49.004;8.372;2023-05-17T11:45:26;101140.20;;;15.56;45.36
12073;BME280;6098;49.004;8.372;2023-05-17T12:00:17;101145.95;;;15.76;44.62
12073;BME280;6098;49.004;8.372;2023-05-17T12:15:16;101135.86;;;15.82;44.35
12073;BME280;6098;49.004;8.372;2023-05-17T12:30:13;101131.12;;;16.05;43.80
12073;BME280;6098;49.004;8.372;2023-05-17T12:45:08;101128.31;;;16.17;43.99
12073;BME280;6098;49.004;8.372;2023-05-17T13:00:04;101123.02;;;16.33;41.83
12073;BME280;6098;49.004;8.372;2023-05-17T13:14:55;101099.52;;;17.06;40.25
12073;BME280;6098;49.004;8.372;2023-05-17T13:29:47;101090.70;;;16.80;40.20
12073;BME280;6098;49.004;8.372;2023-05-17T13:44:39;101086.52;;;16.91;39.07
12073;BME280;6098;49.004;8.372;2023-05-17T13:59:35;101059.75;;;17.55;38.31
12073;BME280;6098;49.004;8.372;2023-05-17T14:14:27;101069.70;;;17.76;38.56
12073;BME280;6098;49.004;8.372;2023-05-17T14:29:18;101064.09;;;17.33;39.08
12073;BME280;6098;49.004;8.372;2023-05-17T14:44:11;101050.41;;;18.00;38.37
12073;BME280;6098;49.004;8.372;2023-05-17T14:59:01;101041.85;;;18.01;38.08
12073;BME280;6098;49.004;8.372;2023-05-17T15:13:59;101041.20;;;18.12;38.39
12073;BME280;6098;49.004;8.372;2023-05-17T15:28:51;101038.12;;;17.96;37.01
12073;BME280;6098;49.004;8.372;2023-05-17T15:43:41;101034.69;;;17.64;37.42
12073;BME280;6098;49.004;8.372;2023-05-17T15:58:41;101032.94;;;18.52;35.64
12073;BME280;6098;49.004;8.372;2023-05-17T16:13:29;101029.38;;;18.22;37.71
12073;BME280;6098;49.004;8.372;2023-05-17T16:28:20;101025.77;;;17.71;38.17
12073;BME280;6098;49.004;8.372;2023-05-17T16:43:23;101030.27;;;17.23;38.80
12073;BME280;6098;49.004;8.372;2023-05-17T16:58:10;101026.73;;;17.15;39.71
12073;BME280;6098;49.004;8.372;2023-05-17T17:13:01;101009.78;;;17.06;40.34
12073;BME280;6098;49.004;8.372;2023-05-17T17:27:53;101014.75;;;16.98;41.08
12073;BME280;6098;49.004;8.372;2023-05-17T17:42:45;101013.39;;;17.30;40.66
12073;BME280;6098;49.004;8.372;2023-05-17T17:57:37;101019.21;;;16.89;41.77
12073;BME280;6098;49.004;8.372;2023-05-17T18:12:29;101020.08;;;16.66;42.35
12073;BME280;6098;49.004;8.372;2023-05-17T18:27:20;101028.44;;;16.42;43.95
12073;BME280;6098;49.004;8.372;2023-05-17T18:42:12;101031.91;;;16.27;44.37
12073;BME280;6098;49.004;8.372;2023-05-17T18:57:03;101034.48;;;16.03;45.36
12073;BME280;6098;49.004;8.372;2023-05-17T19:11:55;101051.34;;;15.70;45.69
12073;BME280;6098;49.004;8.372;2023-05-17T19:26:45;101057.70;;;15.39;47.68
12073;BME280;6098;49.004;8.372;2023-05-17T19:41:36;101065.02;;;15.16;48.20
12073;BME280;6098;49.004;8.372;2023-05-17T19:56:28;101072.73;;;14.95;50.76
12073;BME280;6098;49.004;8.372;2023-05-17T20:11:20;101066.56;;;14.74;51.02
12073;BME280;6098;49.004;8.372;2023-05-17T20:26:12;101073.18;;;14.55;52.63
12073;BME280;6098;49.004;8.372;2023-05-17T20:41:03;101087.47;;;14.33;54.02
12073;BME280;6098;49.004;8.372;2023-05-17T20:55:55;101086.98;;;14.13;54.79
12073;BME280;6098;49.004;8.372;2023-05-17T21:10:46;101086.70;;;13.99;55.15
12073;BME280;6098;49.004;8.372;2023-05-17T21:25:39;101094.95;;;13.82;55.51
12073;BME280;6098;49.004;8.372;2023-05-17T21:40:30;101091.37;;;13.61;56.66
12073;BME280;6098;49.004;8.372;2023-05-17T21:55:21;101076.94;;;13.22;58.71
12073;BME280;6098;49.004;8.372;2023-05-17T22:10:12;101091.21;;;13.09;60.00
12073;BME280;6098;49.004;8.372;2023-05-17T22:25:05;101082.81;;;12.96;59.71
12073;BME280;6098;49.004;8.372;2023-05-17T22:39:57;101088.63;;;12.82;59.24
12073;BME280;6098;49.004;8.372;2023-05-17T22:54:49;101089.50;;;12.70;60.06
12073;BME280;6098;49.004;8.372;2023-05-17T23:09:41;101078.97;;;12.55;61.21
12073;BME280;6098;49.004;8.372;2023-05-17T23:24:31;101087.78;;;12.45;61.90
12073;BME280;6098;49.004;8.372;2023-05-17T23:39:23;101092.00;;;12.25;62.52
12073;BME280;6098;49.004;8.372;2023-05-17T23:54:15;101081.08;;;11.95;63.74
